This is the latest recevied weather packets stored in our database for station/object OH2HCY-3. If no packets are shown the sender has not sent any weather packets the latest 10 day(s).
| Time | Temp. | Humidity | Pressure | Rain* | Wind** | Luminosity | Snow |
|---|---|---|---|---|---|---|---|
| 1777892117 | 7.78° C | 86% | 1002.8 hPa | - | - | - | - |
| 1777891073 | 7.22° C | 80% | - | - | - | - | - |
| 1777891070 | 7.22° C | 86% | 1003.1 hPa | - | - | - | - |
| 1777889894 | 7.22° C | 84% | 1003.4 hPa | - | - | - | - |
| 1777888816 | 7.22° C | 83% | 1003.6 hPa | - | - | - | - |
| 1777887786 | 6.67° C | 83% | 1003.8 hPa | - | - | - | - |
| 1777886645 | 6.67° C | 82% | 1004.1 hPa | - | - | - | - |
| 1777885654 | 6.67° C | 79% | 1004.5 hPa | - | - | - | - |
| 1777884635 | 7.22° C | 74% | 1004.7 hPa | - | - | - | - |
| 1777883480 | 7.22° C | 69% | 1004.5 hPa | - | - | - | - |
| 1777882397 | 8.33° C | 68% | 1004.5 hPa | - | - | - | - |
| 1777881442 | 8.89° C | - | - | - | - | - | - |
| 1777881440 | 8.89° C | 54% | 1004.7 hPa | - | - | - | - |
| 1777880355 | 9.44° C | 48% | 1004.9 hPa | - | - | - | - |
| 1777879350 | 9.44° C | 47% | 1004.9 hPa | - | - | - | - |
| 1777878275 | 10° C | 46% | 1004.5 hPa | - | - | - | - |
| 1777877100 | 10° C | 44% | 1004.3 hPa | - | - | - | - |
| 1777876036 | 10.56° C | 42% | 1004.5 hPa | - | - | - | - |
| 1777874924 | 6.67° C | - | 1004.5 hPa | - | - | - | - |
| 1777874923 | 10.56° C | 44% | 1004.5 hPa | - | - | - | - |
| 1777873955 | 10.56° C | 48% | 1004.8 hPa | - | - | - | - |
| 1777872950 | 10° C | 48% | 1005.1 hPa | - | - | - | - |
| 1777871762 | 8.89° C | 55% | 1005.2 hPa | - | - | - | - |
| 1777870680 | 7.22° C | 59% | 1005.5 hPa | - | - | - | - |
| 1777869515 | 5.56° C | 72% | 1005.7 hPa | - | - | - | - |
* Rain since midnight (hover to see other rain measurements)
** Current wind speed in m/s (hover to see current wind gust speed)